Date,TemperatureHighF,TemperatureAvgF,TemperatureLowF,DewpointHighF,DewpointAvgF,DewpointLowF,HumidityHigh,HumidityAvg,HumidityLow,PressureMaxIn,PressureMinIn,WindSpeedMaxMPH,WindSpeedAvgMPH,GustSpeedMaxMPH,PrecipitationSumIn
2013-1-1,72,58,48,49,45,37,83,64,40,0.00,40.00,13,8,24,0.01
2013-1-2,66,56,44,49,38,21,74,52,28,0.00,40.00,13,8,26,0.00
2013-1-3,70,56,44,48,29,10,60,37,18,0.00,40.00,13,8,26,0.00
2013-1-4,66,54,49,54,48,40,95,81,58,0.00,40.00,16,12,28,0.14
2013-1-5,62,51,45,53,46,41,94,84,58,0.00,40.00,14,10,31,0.18
2013-1-6,65,53,48,54,49,42,95,86,55,0.00,40.00,12,8,22,0.18
2013-1-7,71,56,50,53,41,17,96,65,22,0.00,40.00,12,8,21,0.13
2013-1-8,70,56,46,53,36,17,87,50,27,0.00,40.00,12,8,21,0.01
2013-1-9,71,57,49,54,49,46,95,77,47,0.00,40.00,10,7,19,0.03
2013-1-10,66,54,43,52,43,38,95,68,46,0.00,40.00,12,8,23,0.03
2013-1-11,71,55,43,53,44,31,96,69,37,0.00,40.00,11,5,21,0.19
2013-1-12,67,51,39,55,47,38,98,88,49,0.00,40.00,8,4,14,0.11
2013-1-13,68,56,47,58,51,43,98,85,63,0.00,40.00,8,3,15,0.42
2013-1-14,69,55,44,57,49,38,97,82,59,0.00,40.00,10,5,18,0.01
2013-1-15,69,54,42,59,50,39,98,87,56,0.00,40.00,7,4,12,0.67
2013-1-16,68,56,47,57,53,46,98,92,65,0.00,40.00,7,4,12,0.18
2013-1-17,64,52,41,53,49,40,99,89,66,0.00,40.00,7,4,13,0.04
2013-1-18,65,51,39,53,46,38,98,86,56,0.00,40.00,5,3,11,0.01
2013-1-19,66,50,36,52,39,14,96,71,31,0.00,40.00,8,4,14,0.00
2013-1-20,70,53,36,54,35,16,93,56,13,0.00,40.00,9,4,21,0.00
2013-1-21,77,60,41,52,33,10,70,39,15,0.00,40.00,15,9,31,0.00
2013-1-22,78,63,54,45,30,19,72,30,18,0.00,40.00,15,11,34,0.00
2013-1-23,72,58,42,55,36,22,93,47,17,0.00,40.00,10,5,17,0.00
2013-1-24,62,52,42,53,47,36,96,84,55,0.00,40.00,5,3,11,0.02
2013-1-25,64,53,39,54,50,37,97,89,65,0.00,40.00,7,2,12,0.03
2013-1-26,64,48,35,51,44,34,96,85,58,0.00,40.00,7,4,16,0.01
2013-1-27,60,50,41,58,48,40,97,94,87,0.00,40.00,7,4,13,0.07
2013-1-28,65,49,36,54,46,35,98,88,67,0.00,40.00,7,4,14,0.01
2013-1-29,60,54,48,56,52,47,98,96,87,0.00,40.00,6,4,15,0.70
2013-1-30,66,56,51,58,53,50,98,93,70,0.00,40.00,8,4,16,0.57
2013-1-31,65,55,45,57,50,43,98,84,74,0.00,40.00,10,5,16,0.02
2013-2-1,69,56,47,53,38,15,94,57,24,0.00,40.00,13,9,25,0.02
2013-2-2,78,60,45,28,10,-12,49,20,3,0.00,40.00,12,6,23,0.01
2013-2-3,78,62,50,24,0,-13,22,9,3,0.00,40.00,17,12,33,0.00
2013-2-4,78,63,47,39,9,-9,55,15,5,0.00,40.00,18,10,37,0.00
2013-2-5,67,55,46,50,42,19,84,65,33,0.00,40.00,13,8,27,0.00
2013-2-6,70,56,47,50,46,39,88,72,46,0.00,40.00,8,5,18,0.00
2013-2-7,66,54,47,54,48,37,96,80,64,0.00,40.00,9,5,16,0.36
2013-2-8,68,53,39,52,44,32,93,73,42,0.00,40.00,9,3,17,0.01
2013-2-9,69,54,39,52,43,30,95,71,39,0.00,40.00,12,7,22,0.00
2013-2-10,68,56,39,48,38,26,95,54,21,0.00,40.00,14,8,27,0.01
2013-2-11,73,58,47,48,38,29,77,51,25,0.00,40.00,13,8,24,0.01
2013-2-12,71,53,39,50,40,17,97,64,34,0.00,40.00,12,4,24,0.00
2013-2-13,68,50,36,49,39,15,97,70,35,0.00,40.00,7,4,14,0.00
2013-2-14,68,50,33,49,30,12,81,48,25,0.00,40.00,8,4,17,0.00
2013-2-15,68,50,36,53,40,14,95,71,35,0.00,40.00,10,6,20,0.23
2013-2-16,60,51,46,52,47,42,96,88,66,0.00,40.00,15,9,26,0.57
2013-2-17,62,50,44,53,45,36,94,82,62,0.00,40.00,14,11,30,0.28
2013-2-18,55,49,45,52,47,42,95,92,87,0.00,40.00,13,10,30,1.10
2013-2-19,62,52,45,48,44,40,91,76,45,0.00,40.00,15,11,31,0.05
2013-2-20,62,52,46,53,45,33,95,77,49,0.00,40.00,13,7,23,0.19
2013-2-21,70,54,43,51,44,33,96,71,43,0.00,40.00,8,6,21,0.66
2013-2-22,58,51,45,52,48,41,94,89,78,0.00,40.00,8,6,17,1.10
2013-2-23,63,51,42,53,47,41,96,89,65,0.00,40.00,9,6,18,0.08
2013-2-24,59,52,46,53,48,43,94,87,73,0.00,40.00,14,10,28,0.30
2013-2-25,66,54,46,52,46,40,95,76,50,0.00,40.00,13,9,23,0.31
2013-2-26,63,52,44,47,44,36,94,76,53,0.00,40.00,18,11,34,0.27
2013-2-27,69,55,44,49,37,8,93,56,20,0.00,40.00,13,8,24,0.04
2013-2-28,70,55,45,46,26,8,93,36,15,0.00,40.00,15,8,30,0.00
2013-3-1,69,55,44,40,28,0,74,42,9,0.00,40.00,17,12,33,0.00
2013-3-2,69,57,48,44,24,6,66,29,16,0.00,40.00,14,10,30,0.00
2013-3-3,75,59,41,40,15,-2,66,23,5,0.00,40.00,10,6,24,0.00
2013-3-4,72,57,40,50,21,-6,92,30,7,0.00,40.00,10,6,16,0.00
2013-3-5,69,50,35,50,32,4,93,55,19,0.00,40.00,7,4,15,0.00
2013-3-6,66,51,37,52,42,20,95,72,43,0.00,40.00,9,4,16,0.00
2013-3-7,69,51,34,52,39,18,93,65,38,0.00,40.00,7,4,16,0.00
2013-3-8,69,53,39,51,43,29,92,72,51,0.00,40.00,9,5,18,0.00
2013-3-9,67,51,40,54,45,32,96,81,56,0.00,40.00,10,6,21,0.04
2013-3-10,65,54,44,54,48,41,96,81,62,0.00,40.00,12,7,21,0.01
2013-3-11,66,52,40,54,47,37,97,84,48,0.00,40.00,9,5,16,0.31
2013-3-12,59,52,47,56,50,45,97,92,80,0.00,40.00,6,3,11,0.07
2013-3-13,68,53,41,57,50,40,100,93,59,0.00,40.00,6,2,11,0.13
2013-3-14,64,52,41,57,49,36,100,90,67,0.00,40.00,6,3,12,0.07
2013-3-15,68,54,43,59,52,41,100,92,66,0.00,40.00,6,3,14,0.46
2013-3-16,65,53,46,57,50,41,100,89,71,0.00,40.00,6,2,13,0.19
2013-3-17,56,52,48,56,49,44,100,92,82,0.00,40.00,7,3,15,0.36
2013-3-18,63,52,42,57,50,42,100,93,77,0.00,40.00,9,2,16,0.07
2013-3-19,62,45,36,53,43,36,99,93,71,0.00,40.00,7,4,14,0.05
2013-3-20,62,54,42,58,54,42,100,98,80,0.00,40.00,8,5,17,0.23
2013-3-21,68,52,42,56,48,41,100,87,58,0.00,40.00,8,4,15,0.01
2013-3-22,68,52,41,56,47,36,100,84,55,0.00,40.00,7,3,12,0.07
2013-3-23,65,54,46,57,52,46,100,94,69,0.00,40.00,6,3,14,0.03
2013-3-24,67,54,46,55,49,44,100,85,60,0.00,40.00,9,4,17,0.01
2013-3-25,70,55,43,58,52,43,100,91,64,0.00,40.00,6,3,11,0.01
2013-3-26,67,55,43,58,52,41,100,91,69,0.00,40.00,5,2,11,0.02
2013-3-27,67,53,42,55,48,39,100,83,64,0.00,40.00,5,3,11,0.01
2013-3-28,69,58,50,55,48,40,82,68,54,0.00,40.00,12,8,24,0.05
2013-3-29,67,54,45,59,50,40,100,89,52,0.00,40.00,6,3,13,1.05
2013-3-30,63,54,47,60,52,-100,100,97,82,0.00,40.00,5,2,11,0.79
2013-3-31,63,52,46,57,51,42,100,97,81,0.00,40.00,6,3,12,0.10
2013-4-1,61,48,39,52,46,38,100,93,67,0.00,40.00,9,4,17,0.10
2013-4-2,56,50,41,54,49,40,100,96,82,0.00,40.00,4,2,8,0.07
2013-4-3,58,50,39,53,49,39,100,98,83,0.00,40.00,5,2,10,0.09
2013-4-4,59,51,39,57,50,38,100,95,74,0.00,40.00,6,2,11,0.03
2013-4-5,68,56,46,61,53,46,100,90,64,0.00,40.00,7,3,13,0.02
2013-4-6,75,58,46,59,51,43,100,82,52,0.00,40.00,9,4,17,0.00
2013-4-7,74,58,43,57,45,33,89,65,38,0.00,40.00,6,5,14,0.00
2013-4-8,72,57,46,55,46,27,100,71,37,0.00,40.00,9,5,20,0.00
2013-4-9,69,56,46,58,52,46,100,88,53,0.00,40.00,7,4,16,0.03
2013-4-10,71,56,42,56,49,42,99,80,49,0.00,40.00,8,5,16,0.01
2013-4-11,73,59,46,61,52,32,100,82,38,0.00,40.00,6,3,13,0.01
2013-4-12,70,55,43,56,51,43,100,86,57,0.00,40.00,7,3,13,0.01
2013-4-13,70,56,43,61,51,41,100,85,53,0.00,40.00,7,3,13,0.01
2013-4-14,74,58,45,58,52,42,99,81,54,0.00,40.00,7,4,13,0.01
2013-4-15,74,58,43,59,49,36,100,75,37,0.00,40.00,7,4,15,0.00
2013-4-16,72,58,45,59,48,33,100,73,32,0.00,40.00,7,4,13,0.00
2013-4-17,75,59,46,60,44,30,97,61,35,0.00,40.00,13,7,24,0.00
2013-4-18,72,59,45,55,46,26,99,65,39,0.00,40.00,11,6,19,0.00
2013-4-19,68,54,42,59,48,29,100,82,52,0.00,40.00,6,4,14,0.28
2013-4-20,69,54,40,56,50,37,100,88,57,0.00,40.00,6,4,15,0.03
2013-4-21,67,56,46,64,54,45,100,95,82,0.00,40.00,6,3,11,0.20
2013-4-22,71,56,40,59,51,39,99,87,60,0.00,40.00,9,4,19,0.01
2013-4-23,72,56,42,60,52,41,100,90,58,0.00,40.00,6,3,15,0.60
2013-4-24,69,56,45,58,50,36,100,82,52,0.00,40.00,10,5,17,0.02
2013-4-25,73,61,52,52,44,36,70,54,35,0.00,40.00,13,8,24,0.00
2013-4-26,72,58,48,54,44,33,100,64,30,0.00,40.00,8,6,16,0.00
2013-4-27,70,56,45,55,50,40,99,82,46,0.00,40.00,8,4,16,0.00
2013-4-28,73,55,41,61,51,40,100,89,45,0.00,40.00,9,4,17,0.25
2013-4-29,64,57,50,63,56,48,100,98,90,0.00,40.00,6,2,13,0.36
2013-4-30,68,57,46,59,53,43,99,86,65,0.00,40.00,8,3,16,0.04
2013-5-1,71,57,40,56,49,36,99,76,57,0.00,40.00,8,5,17,0.00
2013-5-2,72,56,48,60,50,34,100,83,51,0.00,40.00,9,4,19,0.00
2013-5-3,70,53,37,56,48,37,100,86,49,0.00,40.00,8,3,16,0.03
2013-5-4,63,54,42,56,53,42,100,96,74,0.00,40.00,4,2,8,0.04
2013-5-5,62,55,47,58,54,46,100,96,82,0.00,40.00,6,3,10,0.03
2013-5-6,71,57,45,60,53,45,100,90,58,0.00,40.00,5,3,11,0.12
2013-5-7,73,60,46,62,55,46,100,85,53,0.00,40.00,7,3,17,0.02
2013-5-8,73,58,43,61,53,43,100,84,55,0.00,40.00,8,4,16,0.00
2013-5-9,73,60,50,65,57,46,100,92,65,0.00,40.00,6,3,12,0.65
2013-5-10,72,61,53,65,56,-100,100,91,71,0.00,40.00,5,2,10,0.20
2013-5-11,71,61,51,61,56,-100,100,88,61,0.00,40.00,7,3,14,0.00
2013-5-12,67,59,53,63,58,53,100,95,77,0.00,40.00,9,5,17,0.04
2013-5-13,72,60,51,58,53,38,100,80,56,0.00,40.00,8,6,16,0.02
2013-5-14,74,60,51,55,48,39,84,67,43,0.00,40.00,11,8,20,0.01
2013-5-15,71,59,50,56,49,32,99,70,49,0.00,40.00,10,7,23,0.00
2013-5-16,70,54,49,58,33,-100,99,77,49,0.00,40.00,10,6,18,0.01
2013-5-17,67,56,49,55,49,-100,99,86,57,0.00,40.00,12,6,20,0.01
2013-5-18,65,55,49,58,54,49,100,95,72,0.00,40.00,4,2,10,0.43
2013-5-19,67,56,47,58,53,45,100,93,68,0.00,40.00,5,3,11,0.08
2013-5-20,68,55,43,61,53,42,100,92,65,0.00,40.00,7,4,14,0.11
2013-5-21,70,57,45,61,53,44,100,88,60,0.00,40.00,9,5,15,0.08
2013-5-22,74,58,42,61,55,42,100,91,61,0.00,40.00,6,3,12,0.55
2013-5-23,70,59,47,61,54,46,100,85,63,0.00,40.00,9,5,18,0.12
2013-5-24,76,61,51,59,52,44,99,73,41,0.00,40.00,11,7,22,0.01
2013-5-25,72,61,52,58,53,46,100,77,45,0.00,40.00,11,8,22,0.14
2013-5-26,65,56,49,60,55,39,100,94,69,0.00,40.00,11,6,20,0.61
2013-5-27,67,55,49,59,54,49,99,96,73,0.00,40.00,6,4,15,0.08
2013-5-28,73,58,48,61,55,48,100,89,57,0.00,40.00,6,3,13,0.71
2013-5-29,70,58,49,63,56,49,100,95,72,0.00,40.00,5,2,12,0.63
2013-5-30,74,60,42,56,47,36,99,68,44,0.00,40.00,7,5,14,0.01
2013-5-31,78,62,44,63,51,32,100,69,45,0.00,40.00,8,5,15,0.01
2013-6-1,78,64,52,54,39,28,57,41,27,0.00,40.00,12,8,21,0.00
2013-6-2,80,68,52,42,36,18,56,33,19,0.00,40.00,10,7,22,0.00
2013-6-3,77,65,52,56,36,18,64,35,18,0.00,40.00,10,6,18,0.00
2013-6-4,77,64,51,44,31,20,70,31,18,0.00,40.00,13,8,25,0.00
2013-6-5,76,62,44,55,40,21,100,49,21,0.00,40.00,12,6,21,0.00
2013-6-6,72,58,41,57,46,21,99,66,34,0.00,40.00,15,8,24,0.00
2013-6-7,71,56,42,57,49,41,100,79,48,0.00,40.00,13,8,24,0.00
2013-6-8,70,58,46,57,52,45,99,82,57,0.00,40.00,9,5,18,0.00
2013-6-9,74,60,48,57,50,39,99,70,40,0.00,40.00,11,4,20,0.00
2013-6-10,79,64,48,58,48,35,91,58,33,0.00,40.00,7,3,14,0.00
2013-6-11,78,64,50,54,41,25,64,44,28,0.00,40.00,8,5,17,0.00
2013-6-12,74,62,51,58,42,26,87,51,28,0.00,40.00,15,10,26,0.00
2013-6-13,70,60,51,55,49,35,92,68,41,0.00,40.00,15,10,27,0.00
2013-6-14,70,59,48,58,49,28,95,70,36,0.00,40.00,14,8,25,0.00
2013-6-15,73,61,46,54,45,31,99,61,24,0.00,40.00,11,7,20,0.00
2013-6-16,74,58,41,57,49,24,100,74,45,0.00,40.00,9,6,16,0.00
2013-6-17,70,59,53,57,54,52,100,86,57,0.00,40.00,12,7,24,0.01
2013-6-18,71,58,52,57,54,48,99,87,57,0.00,40.00,13,7,22,0.02
2013-6-19,66,57,50,61,54,50,100,92,70,0.00,40.00,9,4,14,0.01